Time;durP1;ratioP1;P1;durP2;ratioP2;P2;SDS_P1;SDS_P2;PMS_P1;PMS_P2;Temp;Humidity;BMP_temperature;BMP_pressure;BME280_temperature;BME280_humidity;BME280_pressure;Samples;Min_cycle;Max_cycle;Signal;HPM_P1;HPM_P2
2021/01/11 00:01:05;;;;;;;;;;;;;;;;;;5035538;28;19933;-74
2021/01/11 00:03:31;;;;;;;;;;;;;;;;;;5047208;28;19925;-74
2021/01/11 00:05:57;;;;;;;;;;;;;;;;;;5044114;28;19947;-74
2021/01/11 00:08:23;;;;;;;;;;;;;;;;;;5046819;28;20270;-73
2021/01/11 00:10:49;;;;;;;;;;;;;;;;;;5045676;28;19925;-75
2021/01/11 00:13:15;;;;;;;;;;;;;;;;;;5045299;28;19975;-74
2021/01/11 00:15:41;;;;;;;;;;;;;;;;;;5046483;28;19924;-74
2021/01/11 00:18:07;;;;;;;;;;;;;;;;;;5037238;28;19925;-73
2021/01/11 00:20:32;;;;;;;;;;;;;;;;;;5066566;28;19932;-73
2021/01/11 00:22:58;;;;;;;;;;;;;;;;;;5063006;28;19925;-74
2021/01/11 00:25:24;;;;;;;;;;;;;;;;;;5066858;28;19932;-74
2021/01/11 00:27:52;;;;;;;;;;;;;;;;;;5063824;28;20267;-73
2021/01/11 00:30:18;;;;;;;;;;;;;;;;;;5066373;28;19925;-74
2021/01/11 00:32:44;;;;;;;;;;;;;;;;;;5062772;28;20393;-74
2021/01/11 00:35:10;;;;;;;;;;;;;;;;;;5039465;28;19932;-74
2021/01/11 00:37:35;;;;;;;;;;;;;;;;;;5047397;28;19924;-73
2021/01/11 00:40:01;;;;;;;;;;;;;;;;;;5043627;28;19947;-75
2021/01/11 00:42:27;;;;;;;;;;;;;;;;;;5046989;28;19925;-73
2021/01/11 00:44:53;;;;;;;;;;;;;;;;;;5048340;28;19971;-73
2021/01/11 00:47:19;;;;;;;;;;;;;;;;;;5046281;28;19924;-73
2021/01/11 00:49:45;;;;;;;;;;;;;;;;;;5038180;28;20377;-75
2021/01/11 00:52:11;;;;;;;;;;;;;;;;;;5045656;28;20064;-73
2021/01/11 00:54:37;;;;;;;;;;;;;;;;;;5047682;28;19955;-74
2021/01/11 00:57:03;;;;;;;;;;;;;;;;;;5043737;28;20378;-74
2021/01/11 00:59:29;;;;;;;;;;;;;;;;;;5046769;28;20023;-73
2021/01/11 01:01:55;;;;;;;;;;;;;;;;;;5047755;28;19935;-72
2021/01/11 01:04:21;;;;;;;;;;;;;;;;;;5043494;28;19960;-73
2021/01/11 01:06:46;;;;;;;;;;;;;;;;;;5046074;28;19946;-75
2021/01/11 01:09:12;;;;;;;;;;;;;;;;;;5045038;28;19925;-73
2021/01/11 01:11:38;;;;;;;;;;;;;;;;;;5047252;28;19928;-74
2021/01/11 01:14:04;;;;;;;;;;;;;;;;;;5043581;28;20323;-74
2021/01/11 01:16:30;;;;;;;;;;;;;;;;;;5047167;28;20452;-74
2021/01/11 01:18:56;;;;;;;;;;;;;;;;;;5036566;28;19978;-73
2021/01/11 01:21:22;;;;;;;;;;;;;;;;;;5045473;28;19948;-74
2021/01/11 01:23:48;;;;;;;;;;;;;;;;;;5044952;28;20374;-72
2021/01/11 01:26:14;;;;;;;;;;;;;;;;;;5045111;28;19936;-74
2021/01/11 01:28:40;;;;;;;;;;;;;;;;;;5046334;28;19929;-74
2021/01/11 01:31:06;;;;;;;;;;;;;;;;;;5043277;28;19931;-74
2021/01/11 01:33:32;;;;;;;;;;;;;;;;;;5046724;28;19948;-74
2021/01/11 01:35:58;;;;;;;;;;;;;;;;;;5034535;28;19932;-74
2021/01/11 01:38:24;;;;;;;;;;;;;;;;;;5046765;28;20560;-74
2021/01/11 01:40:49;;;;;;;;;;;;;;;;;;5047867;28;19925;-74
2021/01/11 01:43:16;;;;;;;;;;;;;;;;;;5054953;28;19924;-73
2021/01/11 01:45:42;;;;;;;;;;;;;;;;;;5076441;28;19932;-73
2021/01/11 01:48:08;;;;;;;;;;;;;;;;;;5085699;28;19924;-74
2021/01/11 01:50:34;;;;;;;;;;;;;;;;;;5057358;28;19925;-73
2021/01/11 01:53:00;;;;;;;;;;;;;;;;;;5060760;28;19924;-76
2021/01/11 01:55:26;;;;;;;;;;;;;;;;;;5075474;28;19924;-75
2021/01/11 01:57:52;;;;;;;;;;;;;;;;;;5067976;28;19924;-74
2021/01/11 02:00:18;;;;;;;;;;;;;;;;;;5068929;28;19924;-73
2021/01/11 02:02:44;;;;;;;;;;;;;;;;;;5069211;28;19929;-72
2021/01/11 02:05:10;;;;;;;;;;;;;;;;;;5067763;28;19935;-73
2021/01/11 02:07:36;;;;;;;;;;;;;;;;;;5046350;28;19925;-73
2021/01/11 02:10:02;;;;;;;;;;;;;;;;;;5047666;28;19956;-74
2021/01/11 02:12:28;;;;;;;;;;;;;;;;;;5049347;28;19979;-73
2021/01/11 02:14:54;;;;;;;;;;;;;;;;;;5048405;28;19928;-74
2021/01/11 02:17:21;;;;;;;;;;;;;;;;;;5068424;28;20301;-74
2021/01/11 02:19:47;;;;;;;;;;;;;;;;;;5068945;28;19931;-73
2021/01/11 02:22:13;;;;;;;;;;;;;;;;;;5046833;28;19925;-74
2021/01/11 02:24:39;;;;;;;;;;;;;;;;;;5058534;28;19924;-73
2021/01/11 02:27:05;;;;;;;;;;;;;;;;;;5066872;28;20286;-72
2021/01/11 02:29:30;;;;;;;;;;;;;;;;;;5069568;28;19929;-73
2021/01/11 02:31:56;;;;;;;;;;;;;;;;;;5066653;28;19932;-76
2021/01/11 02:34:22;;;;;;;;;;;;;;;;;;5068798;28;19924;-74
2021/01/11 02:36:48;;;;;;;;;;;;;;;;;;5050141;28;19924;-74
2021/01/11 02:39:14;;;;;;;;;;;;;;;;;;5047239;28;19929;-73
2021/01/11 02:41:40;;;;;;;;;;;;;;;;;;5048664;28;19925;-74
2021/01/11 02:44:06;;;;;;;;;;;;;;;;;;5046014;28;19925;-74
2021/01/11 02:46:32;;;;;;;;;;;;;;;;;;5048754;28;20441;-74
2021/01/11 02:48:58;;;;;;;;;;;;;;;;;;5045407;28;19924;-73
2021/01/11 02:51:24;;;;;;;;;;;;;;;;;;5048530;28;19983;-73
2021/01/11 02:53:50;;;;;;;;;;;;;;;;;;5039022;28;19925;-74
2021/01/11 02:56:16;;;;;;;;;;;;;;;;;;5047150;28;20051;-74
2021/01/11 02:58:42;;;;;;;;;;;;;;;;;;5048122;28;19925;-73
2021/01/11 03:01:08;;;;;;;;;;;;;;;;;;5054148;28;19925;-74
2021/01/11 03:03:34;;;;;;;;;;;;;;;;;;5068662;28;19963;-74
2021/01/11 03:06:00;;;;;;;;;;;;;;;;;;5065502;28;19929;-74
2021/01/11 03:08:26;;;;;;;;;;;;;;;;;;5058199;28;19925;-74
2021/01/11 03:10:52;;;;;;;;;;;;;;;;;;5066471;28;19924;-74
2021/01/11 03:13:18;;;;;;;;;;;;;;;;;;5067798;28;19932;-74
2021/01/11 03:15:44;;;;;;;;;;;;;;;;;;5067500;28;20298;-74
2021/01/11 03:18:10;;;;;;;;;;;;;;;;;;5065665;28;20646;-74
2021/01/11 03:20:36;;;;;;;;;;;;;;;;;;5069263;28;19925;-75
2021/01/11 03:23:02;;;;;;;;;;;;;;;;;;5052736;28;20777;-74
2021/01/11 03:25:28;;;;;;;;;;;;;;;;;;5048369;28;19928;-74
2021/01/11 03:27:54;;;;;;;;;;;;;;;;;;5045185;28;19928;-74
2021/01/11 03:30:20;;;;;;;;;;;;;;;;;;5047205;28;19929;-75
2021/01/11 03:32:46;;;;;;;;;;;;;;;;;;5046940;28;19932;-75
2021/01/11 03:35:12;;;;;;;;;;;;;;;;;;5045662;28;20429;-74
2021/01/11 03:37:38;;;;;;;;;;;;;;;;;;5054749;28;19924;-76
2021/01/11 03:40:04;;;;;;;;;;;;;;;;;;5053286;28;19924;-73
2021/01/11 03:42:30;;;;;;;;;;;;;;;;;;5067813;28;19925;-75
2021/01/11 03:44:56;;;;;;;;;;;;;;;;;;5064459;28;20292;-74
2021/01/11 03:47:22;;;;;;;;;;;;;;;;;;5052087;28;19947;-76
2021/01/11 03:49:48;;;;;;;;;;;;;;;;;;5065805;28;19924;-74
2021/01/11 03:52:14;;;;;;;;;;;;;;;;;;5055027;28;19935;-75
2021/01/11 03:54:40;;;;;;;;;;;;;;;;;;5044788;28;19932;-74
2021/01/11 03:57:05;;;;;;;;;;;;;;;;;;5047339;28;19955;-75
2021/01/11 03:59:31;;;;;;;;;;;;;;;;;;5047492;28;19925;-73
2021/01/11 04:01:57;;;;;;;;;;;;;;;;;;5044482;28;19925;-73
2021/01/11 04:04:23;;;;;;;;;;;;;;;;;;5047033;28;19925;-74
2021/01/11 04:06:49;;;;;;;;;;;;;;;;;;5045635;28;19932;-74
2021/01/11 04:09:15;;;;;;;;;;;;;;;;;;5044678;28;20722;-74
2021/01/11 04:11:41;;;;;;;;;;;;;;;;;;5052231;28;19924;-73
2021/01/11 04:14:07;;;;;;;;;;;;;;;;;;5062674;28;19978;-73
2021/01/11 04:16:34;;;;;;;;;;;;;;;;;;5067164;28;19928;-73
2021/01/11 04:19:00;;;;;;;;;;;;;;;;;;5063396;28;20382;-76
2021/01/11 04:21:26;;;;;;;;;;;;;;;;;;5067402;28;19931;-76
2021/01/11 04:23:52;;;;;;;;;;;;;;;;;;5067121;28;19924;-74
2021/01/11 04:26:18;;;;;;;;;;;;;;;;;;5056526;28;20697;-74
2021/01/11 04:28:44;;;;;;;;;;;;;;;;;;5064267;28;19936;-74
2021/01/11 04:31:09;;;;;;;;;;;;;;;;;;5063546;28;19925;-74
2021/01/11 04:33:35;;;;;;;;;;;;;;;;;;5066737;28;20435;-75
2021/01/11 04:36:01;;;;;;;;;;;;;;;;;;5063119;28;19924;-74
2021/01/11 04:38:27;;;;;;;;;;;;;;;;;;5066594;28;19924;-74
2021/01/11 04:40:53;;;;;;;;;;;;;;;;;;5045957;28;19975;-74
2021/01/11 04:43:19;;;;;;;;;;;;;;;;;;5045725;28;20345;-73
2021/01/11 04:45:45;;;;;;;;;;;;;;;;;;5045351;28;19925;-74
2021/01/11 04:48:11;;;;;;;;;;;;;;;;;;5044417;28;19931;-74
2021/01/11 04:50:37;;;;;;;;;;;;;;;;;;5046329;28;19929;-74
2021/01/11 04:53:03;;;;;;;;;;;;;;;;;;5042965;28;19974;-75
2021/01/11 04:55:29;;;;;;;;;;;;;;;;;;5046508;28;19925;-74
2021/01/11 04:57:55;;;;;;;;;;;;;;;;;;5034995;28;20279;-73
2021/01/11 05:00:21;;;;;;;;;;;;;;;;;;5045685;28;20332;-74
2021/01/11 05:02:47;;;;;;;;;;;;;;;;;;5045028;28;19932;-74
2021/01/11 05:05:12;;;;;;;;;;;;;;;;;;5044113;28;19928;-74
2021/01/11 05:07:38;;;;;;;;;;;;;;;;;;5046412;28;19932;-74
2021/01/11 05:10:04;;;;;;;;;;;;;;;;;;5042794;28;20550;-74
2021/01/11 05:12:30;;;;;;;;;;;;;;;;;;5043977;28;20400;-73
2021/01/11 05:14:56;;;;;;;;;;;;;;;;;;5043083;28;19925;-73
2021/01/11 05:17:22;;;;;;;;;;;;;;;;;;5045784;28;19925;-74
2021/01/11 05:19:48;;;;;;;;;;;;;;;;;;5048131;28;19932;-73
2021/01/11 05:22:14;;;;;;;;;;;;;;;;;;5050617;28;19986;-73
2021/01/11 05:24:40;;;;;;;;;;;;;;;;;;5052546;28;19925;-73
2021/01/11 05:27:06;;;;;;;;;;;;;;;;;;5041886;28;19933;-72
2021/01/11 05:29:32;;;;;;;;;;;;;;;;;;5072876;28;19924;-73
2021/01/11 05:31:58;;;;;;;;;;;;;;;;;;5069381;28;20381;-74
2021/01/11 05:34:24;;;;;;;;;;;;;;;;;;5072772;28;19928;-74
2021/01/11 05:36:49;;;;;;;;;;;;;;;;;;5071121;28;19925;-74
2021/01/11 05:39:15;;;;;;;;;;;;;;;;;;5071527;28;20297;-74
2021/01/11 05:41:41;;;;;;;;;;;;;;;;;;5072555;28;19925;-75
2021/01/11 05:44:07;;;;;;;;;;;;;;;;;;5049542;28;19932;-73
2021/01/11 05:46:33;;;;;;;;;;;;;;;;;;5053296;28;20427;-73
2021/01/11 05:48:59;;;;;;;;;;;;;;;;;;5049919;28;19982;-74
2021/01/11 05:51:25;;;;;;;;;;;;;;;;;;5053345;28;19925;-74
2021/01/11 05:53:51;;;;;;;;;;;;;;;;;;5051224;28;19925;-74
2021/01/11 05:56:17;;;;;;;;;;;;;;;;;;5051716;28;19931;-74
2021/01/11 05:58:43;;;;;;;;;;;;;;;;;;5050114;28;19925;-74
2021/01/11 06:01:09;;;;;;;;;;;;;;;;;;5063167;28;20739;-74
2021/01/11 06:03:34;;;;;;;;;;;;;;;;;;5072806;28;19928;-75
2021/01/11 06:06:00;;;;;;;;;;;;;;;;;;5069124;28;19986;-74
2021/01/11 06:08:26;;;;;;;;;;;;;;;;;;5073561;28;20385;-74
2021/01/11 06:10:53;;;;;;;;;;;;;;;;;;5069866;28;19964;-73
2021/01/11 06:13:19;;;;;;;;;;;;;;;;;;5071482;28;20019;-73
2021/01/11 06:15:45;;;;;;;;;;;;;;;;;;5059661;28;19924;-74
2021/01/11 06:18:11;;;;;;;;;;;;;;;;;;5069976;28;19950;-74
2021/01/11 06:20:37;;;;;;;;;;;;;;;;;;5072342;28;20017;-74
2021/01/11 06:23:03;;;;;;;;;;;;;;;;;;5068638;28;19924;-74
2021/01/11 06:25:29;;;;;;;;;;;;;;;;;;5072358;28;19924;-74
2021/01/11 06:27:55;;;;;;;;;;;;;;;;;;5069459;28;19936;-74
2021/01/11 06:30:21;;;;;;;;;;;;;;;;;;5055016;28;19935;-74
2021/01/11 06:32:47;;;;;;;;;;;;;;;;;;5047384;28;20294;-74
2021/01/11 06:35:13;;;;;;;;;;;;;;;;;;5047120;28;19925;-74
2021/01/11 06:37:39;;;;;;;;;;;;;;;;;;5049004;28;20020;-73
2021/01/11 06:40:05;;;;;;;;;;;;;;;;;;5045485;28;19924;-73
2021/01/11 06:42:30;;;;;;;;;;;;;;;;;;5048740;28;19932;-74
2021/01/11 06:44:56;;;;;;;;;;;;;;;;;;5045959;28;19932;-74
2021/01/11 06:47:22;;;;;;;;;;;;;;;;;;5039942;28;19971;-74
2021/01/11 06:49:48;;;;;;;;;;;;;;;;;;5047372;28;19932;-73
2021/01/11 06:52:14;;;;;;;;;;;;;;;;;;5047049;28;19943;-73
2021/01/11 06:54:41;;;;;;;;;;;;;;;;;;5049094;28;19932;-74
2021/01/11 06:57:07;;;;;;;;;;;;;;;;;;5045025;28;19925;-74
2021/01/11 06:59:33;;;;;;;;;;;;;;;;;;5048767;28;19931;-74
2021/01/11 07:01:59;;;;;;;;;;;;;;;;;;5038070;28;19932;-74
2021/01/11 07:04:25;;;;;;;;;;;;;;;;;;5049122;28;19925;-74
2021/01/11 07:06:51;;;;;;;;;;;;;;;;;;5046283;28;19948;-74
2021/01/11 07:09:18;;;;;;;;;;;;;;;;;;5057611;28;19931;-74
2021/01/11 07:11:44;;;;;;;;;;;;;;;;;;5068229;28;19928;-73
2021/01/11 07:14:10;;;;;;;;;;;;;;;;;;5066341;28;19958;-73
2021/01/11 07:16:36;;;;;;;;;;;;;;;;;;5067639;28;19928;-74
2021/01/11 07:19:02;;;;;;;;;;;;;;;;;;5053512;28;20783;-74
2021/01/11 07:21:28;;;;;;;;;;;;;;;;;;5068444;28;19924;-76
2021/01/11 07:23:55;;;;;;;;;;;;;;;;;;5066419;28;19932;-74
2021/01/11 07:26:21;;;;;;;;;;;;;;;;;;5067973;28;19971;-74
2021/01/11 07:28:47;;;;;;;;;;;;;;;;;;5067297;28;19925;-74
2021/01/11 07:31:13;;;;;;;;;;;;;;;;;;5066086;28;20371;-74
2021/01/11 07:33:39;;;;;;;;;;;;;;;;;;5051446;28;19928;-74
2021/01/11 07:36:05;;;;;;;;;;;;;;;;;;5044808;28;19939;-74
2021/01/11 07:38:31;;;;;;;;;;;;;;;;;;5047980;28;19931;-73
2021/01/11 07:40:57;;;;;;;;;;;;;;;;;;5044626;28;19932;-73
2021/01/11 07:43:22;;;;;;;;;;;;;;;;;;5046073;28;19932;-74
2021/01/11 07:45:48;;;;;;;;;;;;;;;;;;5046294;28;19925;-74
2021/01/11 07:48:14;;;;;;;;;;;;;;;;;;5046376;28;19929;-74
2021/01/11 07:50:40;;;;;;;;;;;;;;;;;;5053523;28;19925;-73
2021/01/11 07:53:06;;;;;;;;;;;;;;;;;;5065064;28;20445;-74
2021/01/11 07:55:34;;;;;;;;;;;;;;;;;;5068526;28;20328;-73
2021/01/11 07:58:00;;;;;;;;;;;;;;;;;;5066880;28;20008;-74
2021/01/11 08:00:26;;;;;;;;;;;;;;;;;;5068210;28;19924;-74
2021/01/11 08:02:52;;;;;;;;;;;;;;;;;;5049405;28;19925;-73
2021/01/11 08:05:17;;;;;;;;;;;;;;;;;;5038637;28;20019;-73
2021/01/11 08:07:44;;;;;;;;;;;;;;;;;;5041654;28;20409;-73
2021/01/11 08:10:09;;;;;;;;;;;;;;;;;;5054391;28;19931;-73
2021/01/11 08:12:35;;;;;;;;;;;;;;;;;;5045821;28;19924;-75
2021/01/11 08:15:01;;;;;;;;;;;;;;;;;;5057786;28;19931;-74
2021/01/11 08:17:29;;;;;;;;;;;;;;;;;;5046110;28;19924;-74
2021/01/11 08:19:55;;;;;;;;;;;;;;;;;;5042622;28;19975;-74
2021/01/11 08:22:21;;;;;;;;;;;;;;;;;;5057371;28;20294;-73
2021/01/11 08:24:47;;;;;;;;;;;;;;;;;;5062491;28;19924;-74
2021/01/11 08:27:13;;;;;;;;;;;;;;;;;;5050298;28;19931;-73
2021/01/11 08:29:39;;;;;;;;;;;;;;;;;;5047870;28;19932;-73
2021/01/11 08:32:05;;;;;;;;;;;;;;;;;;5046352;28;19952;-75
2021/01/11 08:34:31;;;;;;;;;;;;;;;;;;5036063;28;20113;-74
2021/01/11 08:36:56;;;;;;;;;;;;;;;;;;5050671;28;19986;-75
2021/01/11 08:39:24;;;;;;;;;;;;;;;;;;5049230;28;19928;-75
2021/01/11 08:41:50;;;;;;;;;;;;;;;;;;5057938;28;20019;-75
2021/01/11 08:44:16;;;;;;;;;;;;;;;;;;5059792;28;19925;-75
2021/01/11 08:46:42;;;;;;;;;;;;;;;;;;5058779;28;19933;-74
2021/01/11 08:49:08;;;;;;;;;;;;;;;;;;5047884;28;20325;-74
2021/01/11 08:51:34;;;;;;;;;;;;;;;;;;5043644;28;19997;-74
2021/01/11 08:54:00;;;;;;;;;;;;;;;;;;5053797;28;19979;-76
2021/01/11 08:56:26;;;;;;;;;;;;;;;;;;5042732;28;19990;-75
2021/01/11 08:58:53;;;;;;;;;;;;;;;;;;5052458;28;19929;-75
2021/01/11 09:01:20;;;;;;;;;;;;;;;;;;5055265;28;19947;-73
2021/01/11 09:03:47;;;;;;;;;;;;;;;;;;5054365;28;19972;-74
2021/01/11 09:06:13;;;;;;;;;;;;;;;;;;5048756;28;19978;-75
2021/01/11 09:08:39;;;;;;;;;;;;;;;;;;5056732;28;19924;-75
2021/01/11 09:11:05;;;;;;;;;;;;;;;;;;5061066;28;19978;-73
2021/01/11 09:13:31;;;;;;;;;;;;;;;;;;5068013;28;19977;-73
2021/01/11 09:15:57;;;;;;;;;;;;;;;;;;5057861;28;19925;-73
2021/01/11 09:18:24;;;;;;;;;;;;;;;;;;5043990;28;19924;-74
2021/01/11 09:20:51;;;;;;;;;;;;;;;;;;5040276;28;20032;-74
2021/01/11 09:23:17;;;;;;;;;;;;;;;;;;5045149;28;19924;-73
2021/01/11 09:25:49;;;;;;;;;;;;;;;;;;5054091;28;19932;-76
2021/01/11 09:28:15;;;;;;;;;;;;;;;;;;5064387;28;19982;-75
2021/01/11 09:30:41;;;;;;;;;;;;;;;;;;5053540;28;19933;-73
2021/01/11 09:33:07;;;;;;;;;;;;;;;;;;5047079;28;20301;-73
2021/01/11 09:35:33;;;;;;;;;;;;;;;;;;5064268;28;19924;-73
2021/01/11 09:37:59;;;;;;;;;;;;;;;;;;5044262;28;19925;-75
2021/01/11 09:40:25;;;;;;;;;;;;;;;;;;5040988;28;19924;-75
2021/01/11 09:42:51;;;;;;;;;;;;;;;;;;5047172;28;20313;-74
2021/01/11 09:45:17;;;;;;;;;;;;;;;;;;5044478;28;19932;-73
2021/01/11 09:47:43;;;;;;;;;;;;;;;;;;5043524;28;19936;-74
2021/01/11 09:50:10;;;;;;;;;;;;;;;;;;5045806;28;19924;-74
2021/01/11 09:52:36;;;;;;;;;;;;;;;;;;5036740;28;20090;-75
2021/01/11 09:55:02;;;;;;;;;;;;;;;;;;5047314;28;20337;-76
2021/01/11 09:57:28;;;;;;;;;;;;;;;;;;5039513;28;20320;-73
2021/01/11 09:59:54;;;;;;;;;;;;;;;;;;5046952;28;19972;-75
2021/01/11 10:02:20;;;;;;;;;;;;;;;;;;5047113;28;19977;-74
2021/01/11 10:04:48;;;;;;;;;;;;;;;;;;5065025;28;19928;-74
2021/01/11 10:07:13;;;;;;;;;;;;;;;;;;5046253;28;19931;-75
2021/01/11 10:09:40;;;;;;;;;;;;;;;;;;5058626;28;19925;-73
2021/01/11 10:12:06;;;;;;;;;;;;;;;;;;5047715;28;20059;-73
2021/01/11 10:14:32;;;;;;;;;;;;;;;;;;5053579;28;19948;-77
2021/01/11 10:16:58;;;;;;;;;;;;;;;;;;5041873;28;20401;-77
2021/01/11 10:19:23;;;;;;;;;;;;;;;;;;5050811;28;19931;-76
2021/01/11 10:21:49;;;;;;;;;;;;;;;;;;5049602;28;20285;-72
2021/01/11 10:24:15;;;;;;;;;;;;;;;;;;5043788;28;20454;-71
2021/01/11 10:26:41;;;;;;;;;;;;;;;;;;5047952;28;19924;-70
2021/01/11 10:29:07;;;;;;;;;;;;;;;;;;5059810;28;20121;-71
2021/01/11 10:31:33;;;;;;;;;;;;;;;;;;5067156;28;19924;-73
2021/01/11 10:33:59;;;;;;;;;;;;;;;;;;5043537;28;20712;-71
2021/01/11 10:36:25;;;;;;;;;;;;;;;;;;5068519;28;19928;-71
2021/01/11 10:38:51;;;;;;;;;;;;;;;;;;5052011;28;19943;-72
2021/01/11 10:41:17;;;;;;;;;;;;;;;;;;5067808;28;19925;-71
2021/01/11 10:43:43;;;;;;;;;;;;;;;;;;5052286;28;19932;-71
2021/01/11 10:46:09;;;;;;;;;;;;;;;;;;5062617;28;20318;-76
2021/01/11 10:48:35;;;;;;;;;;;;;;;;;;5057211;28;19932;-78
2021/01/11 10:51:01;;;;;;;;;;;;;;;;;;5049466;28;19967;-76
2021/01/11 10:53:27;;;;;;;;;;;;;;;;;;5047713;28;19925;-76
2021/01/11 10:55:53;;;;;;;;;;;;;;;;;;5045327;28;19974;-75
2021/01/11 10:58:19;;;;;;;;;;;;;;;;;;5060271;28;19925;-75
2021/01/11 11:00:45;;;;;;;;;;;;;;;;;;5057580;28;19943;-75
2021/01/11 11:03:11;;;;;;;;;;;;;;;;;;5064252;28;19925;-74
2021/01/11 11:05:37;;;;;;;;;;;;;;;;;;5056766;28;19924;-76
2021/01/11 11:08:03;;;;;;;;;;;;;;;;;;5051880;28;19924;-74
2021/01/11 11:10:29;;;;;;;;;;;;;;;;;;5056684;28;20373;-76
2021/01/11 11:12:55;;;;;;;;;;;;;;;;;;5058270;28;19935;-77
2021/01/11 11:15:21;;;;;;;;;;;;;;;;;;5058511;28;20369;-78
2021/01/11 11:17:47;;;;;;;;;;;;;;;;;;5062894;28;20320;-74
2021/01/11 11:20:13;;;;;;;;;;;;;;;;;;5045164;28;19978;-75
2021/01/11 11:22:39;;;;;;;;;;;;;;;;;;5047424;28;19932;-78
2021/01/11 11:25:06;;;;;;;;;;;;;;;;;;5047786;28;20011;-79
2021/01/11 11:27:32;;;;;;;;;;;;;;;;;;5041505;28;19925;-78
2021/01/11 11:29:58;;;;;;;;;;;;;;;;;;5045138;28;19951;-76
2021/01/11 11:32:24;;;;;;;;;;;;;;;;;;5052092;28;19929;-76
2021/01/11 11:34:50;;;;;;;;;;;;;;;;;;5050793;28;19928;-77
2021/01/11 11:37:16;;;;;;;;;;;;;;;;;;5052466;28;19925;-75
2021/01/11 11:39:42;;;;;;;;;;;;;;;;;;5048532;28;19925;-78
2021/01/11 11:42:08;;;;;;;;;;;;;;;;;;5052332;28;19925;-75
2021/01/11 11:44:34;;;;;;;;;;;;;;;;;;5060599;28;19933;-77
2021/01/11 11:47:00;;;;;;;;;;;;;;;;;;5058758;28;19997;-77
2021/01/11 11:49:26;;;;;;;;;;;;;;;;;;5057512;28;19955;-78
2021/01/11 11:51:52;;;;;;;;;;;;;;;;;;5053195;28;19937;-77
2021/01/11 11:54:17;;;;;;;;;;;;;;;;;;5058273;28;19933;-75
2021/01/11 11:56:44;;;;;;;;;;;;;;;;;;5041982;28;19924;-76
2021/01/11 11:59:10;;;;;;;;;;;;;;;;;;5040445;28;19932;-78
2021/01/11 12:01:36;;;;;;;;;;;;;;;;;;5054714;28;19924;-76
2021/01/11 12:04:02;;;;;;;;;;;;;;;;;;5047903;28;19925;-75
2021/01/11 12:06:28;;;;;;;;;;;;;;;;;;5050060;28;19928;-76
2021/01/11 12:08:53;;;;;;;;;;;;;;;;;;5044335;28;20339;-78
2021/01/11 12:11:19;;;;;;;;;;;;;;;;;;5046374;28;19932;-76
2021/01/11 12:13:45;;;;;;;;;;;;;;;;;;5045103;28;19935;-76
2021/01/11 12:16:11;;;;;;;;;;;;;;;;;;5042602;28;19931;-77
2021/01/11 12:18:37;;;;;;;;;;;;;;;;;;5051395;28;19929;-78
2021/01/11 12:21:04;;;;;;;;;;;;;;;;;;5040415;28;20420;-78
2021/01/11 12:23:30;;;;;;;;;;;;;;;;;;5063893;28;19931;-78
2021/01/11 12:25:56;;;;;;;;;;;;;;;;;;5042651;28;19924;-77
2021/01/11 12:28:23;;;;;;;;;;;;;;;;;;5048941;28;19931;-78
2021/01/11 12:30:49;;;;;;;;;;;;;;;;;;5065818;28;20274;-77
2021/01/11 12:33:15;;;;;;;;;;;;;;;;;;5045035;28;19960;-78
2021/01/11 12:35:41;;;;;;;;;;;;;;;;;;5049865;28;20356;-77
2021/01/11 12:38:07;;;;;;;;;;;;;;;;;;5044696;28;19925;-78
2021/01/11 12:40:32;;;;;;;;;;;;;;;;;;5047269;28;19955;-77
2021/01/11 12:42:58;;;;;;;;;;;;;;;;;;5037789;28;24221;-75
2021/01/11 12:45:27;;;;;;;;;;;;;;;;;;5060975;28;19924;-77
2021/01/11 12:47:53;;;;;;;;;;;;;;;;;;5041041;28;20019;-78
2021/01/11 12:50:19;;;;;;;;;;;;;;;;;;5053023;28;20395;-76
2021/01/11 12:52:45;;;;;;;;;;;;;;;;;;5046299;28;19952;-77
2021/01/11 12:55:10;;;;;;;;;;;;;;;;;;5036584;28;20569;-75
2021/01/11 12:57:36;;;;;;;;;;;;;;;;;;5048297;28;19929;-76
2021/01/11 13:00:02;;;;;;;;;;;;;;;;;;5041423;28;19925;-76
2021/01/11 13:02:28;;;;;;;;;;;;;;;;;;5040033;28;19933;-76
2021/01/11 13:04:54;;;;;;;;;;;;;;;;;;5055426;28;19925;-75
2021/01/11 13:07:20;;;;;;;;;;;;;;;;;;5042792;28;19925;-76
2021/01/11 13:09:46;;;;;;;;;;;;;;;;;;5045454;28;19925;-76
2021/01/11 13:12:12;;;;;;;;;;;;;;;;;;5053989;28;20480;-78
2021/01/11 13:14:38;;;;;;;;;;;;;;;;;;5045692;28;19925;-78
2021/01/11 13:17:04;;;;;;;;;;;;;;;;;;5048745;28;20328;-77
2021/01/11 13:19:30;;;;;;;;;;;;;;;;;;5048861;28;20685;-77
2021/01/11 13:21:55;;;;;;;;;;;;;;;;;;5063811;28;19982;-76
2021/01/11 13:24:21;;;;;;;;;;;;;;;;;;5045860;28;19932;-73
2021/01/11 13:26:47;;;;;;;;;;;;;;;;;;5055565;28;19929;-76
2021/01/11 13:29:14;;;;;;;;;;;;;;;;;;5047022;28;19932;-74
2021/01/11 13:31:40;;;;;;;;;;;;;;;;;;5047951;28;20367;-76
2021/01/11 13:34:06;;;;;;;;;;;;;;;;;;5048320;28;19932;-75
2021/01/11 13:36:33;;;;;;;;;;;;;;;;;;5042037;28;20282;-76
2021/01/11 13:38:59;;;;;;;;;;;;;;;;;;5047718;28;20019;-76
2021/01/11 13:41:25;;;;;;;;;;;;;;;;;;5053173;28;20428;-74
2021/01/11 13:43:51;;;;;;;;;;;;;;;;;;5049858;28;19982;-76
2021/01/11 13:46:17;;;;;;;;;;;;;;;;;;5049417;28;19935;-75
2021/01/11 13:48:43;;;;;;;;;;;;;;;;;;5052579;28;19925;-77
2021/01/11 13:51:09;;;;;;;;;;;;;;;;;;5043794;28;19931;-75
2021/01/11 13:53:35;;;;;;;;;;;;;;;;;;5057571;28;20494;-78
2021/01/11 13:56:01;;;;;;;;;;;;;;;;;;5047999;28;19929;-77
2021/01/11 13:58:27;;;;;;;;;;;;;;;;;;5052919;28;20677;-74
2021/01/11 14:00:53;;;;;;;;;;;;;;;;;;5048750;28;19974;-78
2021/01/11 14:03:19;;;;;;;;;;;;;;;;;;5052266;28;20500;-76
2021/01/11 14:05:45;;;;;;;;;;;;;;;;;;5059870;28;19925;-77
2021/01/11 14:08:11;;;;;;;;;;;;;;;;;;5052436;28;19925;-76
2021/01/11 14:10:39;;;;;;;;;;;;;;;;;;5055247;28;19987;-76
2021/01/11 14:13:05;;;;;;;;;;;;;;;;;;5055105;28;19953;-78
2021/01/11 14:15:31;;;;;;;;;;;;;;;;;;5052719;28;19955;-75
2021/01/11 14:17:57;;;;;;;;;;;;;;;;;;5063243;28;20400;-78
2021/01/11 14:20:23;;;;;;;;;;;;;;;;;;5051574;28;19995;-78
2021/01/11 14:22:49;;;;;;;;;;;;;;;;;;5051499;28;19925;-78
2021/01/11 14:25:15;;;;;;;;;;;;;;;;;;5054503;28;19932;-78
2021/01/11 14:27:41;;;;;;;;;;;;;;;;;;5051695;28;19924;-76
2021/01/11 14:30:07;;;;;;;;;;;;;;;;;;5047098;28;19925;-78
2021/01/11 14:32:33;;;;;;;;;;;;;;;;;;5043027;28;19993;-79
2021/01/11 14:34:59;;;;;;;;;;;;;;;;;;5050182;28;19925;-79
2021/01/11 14:37:25;;;;;;;;;;;;;;;;;;5046512;28;19932;-77
2021/01/11 14:39:51;;;;;;;;;;;;;;;;;;5069206;28;19936;-77
2021/01/11 14:42:17;;;;;;;;;;;;;;;;;;5052063;28;19931;-78
2021/01/11 14:44:43;;;;;;;;;;;;;;;;;;5050748;28;19990;-76
2021/01/11 14:47:09;;;;;;;;;;;;;;;;;;5042908;28;19944;-77
2021/01/11 14:49:35;;;;;;;;;;;;;;;;;;5057324;28;19928;-78
2021/01/11 14:52:03;;;;;;;;;;;;;;;;;;5042066;28;20506;-77
2021/01/11 14:54:29;;;;;;;;;;;;;;;;;;5050525;28;19932;-77
2021/01/11 14:56:55;;;;;;;;;;;;;;;;;;5047567;28;19929;-76
2021/01/11 14:59:21;;;;;;;;;;;;;;;;;;5048905;28;19925;-77
2021/01/11 15:01:47;;;;;;;;;;;;;;;;;;5050716;28;20015;-77
2021/01/11 15:04:14;;;;;;;;;;;;;;;;;;5041204;28;19951;-77
2021/01/11 15:06:40;;;;;;;;;;;;;;;;;;5046984;28;19925;-77
2021/01/11 15:09:06;;;;;;;;;;;;;;;;;;5046582;28;19959;-78
2021/01/11 15:11:32;;;;;;;;;;;;;;;;;;5069505;28;20320;-77
2021/01/11 15:13:59;;;;;;;;;;;;;;;;;;5057478;28;20700;-78
2021/01/11 15:16:26;;;;;;;;;;;;;;;;;;5057899;28;19925;-78
2021/01/11 15:18:52;;;;;;;;;;;;;;;;;;5042761;28;19928;-76
2021/01/11 15:21:18;;;;;;;;;;;;;;;;;;5046346;28;20271;-76
2021/01/11 15:23:45;;;;;;;;;;;;;;;;;;5055424;28;19935;-76
2021/01/11 15:26:11;;;;;;;;;;;;;;;;;;5045999;28;19933;-77
2021/01/11 15:28:37;;;;;;;;;;;;;;;;;;5055805;28;20382;-77
2021/01/11 15:31:03;;;;;;;;;;;;;;;;;;5053577;28;19978;-77
2021/01/11 15:33:29;;;;;;;;;;;;;;;;;;5055741;28;20042;-76
2021/01/11 15:35:56;;;;;;;;;;;;;;;;;;5039359;28;20393;-77
2021/01/11 15:38:22;;;;;;;;;;;;;;;;;;5046608;28;19940;-76
2021/01/11 15:40:48;;;;;;;;;;;;;;;;;;5060257;28;19928;-76
2021/01/11 15:43:13;;;;;;;;;;;;;;;;;;5047624;28;19974;-75
2021/01/11 15:45:39;;;;;;;;;;;;;;;;;;5057289;28;19924;-77
2021/01/11 15:48:05;;;;;;;;;;;;;;;;;;5047460;28;19973;-77
2021/01/11 15:50:31;;;;;;;;;;;;;;;;;;5043566;28;20374;-77
2021/01/11 15:52:57;;;;;;;;;;;;;;;;;;5042708;28;19944;-75
2021/01/11 15:55:23;;;;;;;;;;;;;;;;;;5048095;28;19925;-76
2021/01/11 15:57:49;;;;;;;;;;;;;;;;;;5042134;28;19925;-75
2021/01/11 16:00:15;;;;;;;;;;;;;;;;;;5050443;28;19933;-76
2021/01/11 16:02:40;;;;;;;;;;;;;;;;;;5049750;28;19925;-74
2021/01/11 16:05:06;;;;;;;;;;;;;;;;;;5037839;28;20807;-76
2021/01/11 16:07:32;;;;;;;;;;;;;;;;;;5044414;28;19929;-77
2021/01/11 16:09:58;;;;;;;;;;;;;;;;;;5045587;28;19925;-76
2021/01/11 16:12:24;;;;;;;;;;;;;;;;;;5043487;28;19925;-76
2021/01/11 16:14:50;;;;;;;;;;;;;;;;;;5045301;28;19974;-76
2021/01/11 16:17:17;;;;;;;;;;;;;;;;;;5048763;28;20356;-75
2021/01/11 16:19:43;;;;;;;;;;;;;;;;;;5043797;28;20347;-77
2021/01/11 16:22:08;;;;;;;;;;;;;;;;;;5041981;28;19936;-75
2021/01/11 16:24:34;;;;;;;;;;;;;;;;;;5048284;28;19936;-75
2021/01/11 16:27:00;;;;;;;;;;;;;;;;;;5026129;28;20203;-75
2021/01/11 16:29:26;;;;;;;;;;;;;;;;;;5030476;28;19940;-75
2021/01/11 16:31:52;;;;;;;;;;;;;;;;;;5033748;28;19928;-76
2021/01/11 16:34:18;;;;;;;;;;;;;;;;;;5051530;28;19935;-77
2021/01/11 16:36:44;;;;;;;;;;;;;;;;;;5027933;28;19928;-78